createdAt,value
2023-03-29T00:00:45.242Z,90.4
2023-03-29T00:01:59.639Z,90
2023-03-29T00:03:14.055Z,90.7
2023-03-29T00:04:28.365Z,90.9
2023-03-29T00:05:42.652Z,90.5
2023-03-29T00:06:56.928Z,90.6
2023-03-29T00:08:11.336Z,90.2
2023-03-29T00:09:25.674Z,90.5
2023-03-29T00:10:39.942Z,90.5
2023-03-29T00:11:54.240Z,90.3
2023-03-29T00:13:08.636Z,90.3
2023-03-29T00:14:22.958Z,90.5
2023-03-29T00:15:37.235Z,90.7
2023-03-29T00:16:51.518Z,91.1
2023-03-29T00:18:05.937Z,91
2023-03-29T00:19:20.245Z,91
2023-03-29T00:20:34.523Z,90.8
2023-03-29T00:21:48.808Z,90.7
2023-03-29T00:23:03.225Z,90.5
2023-03-29T00:24:17.539Z,90.5
2023-03-29T00:25:31.830Z,91.2
2023-03-29T00:26:46.238Z,90.9
2023-03-29T00:28:00.643Z,90.8
2023-03-29T00:29:14.951Z,90.8
2023-03-29T00:30:29.238Z,91.2
2023-03-29T00:31:43.512Z,91.1
2023-03-29T00:32:57.921Z,90.9
2023-03-29T00:34:12.262Z,90.8
2023-03-29T00:35:26.534Z,91.1
2023-03-29T00:36:40.815Z,91.2
2023-03-29T00:37:55.216Z,90.8
2023-03-29T00:39:09.539Z,91.1
2023-03-29T00:40:23.823Z,91
2023-03-29T00:41:38.099Z,91.2
2023-03-29T00:42:52.515Z,91.1
2023-03-29T00:44:06.842Z,91
2023-03-29T00:45:21.112Z,90.9
2023-03-29T00:46:35.532Z,90.7
2023-03-29T00:47:49.934Z,91
2023-03-29T00:49:04.256Z,91.1
2023-03-29T00:50:18.532Z,91.2
2023-03-29T00:51:32.818Z,91.4
2023-03-29T00:52:47.229Z,91.2
2023-03-29T00:54:01.552Z,91
2023-03-29T00:55:15.815Z,90.9
2023-03-29T00:56:30.106Z,90.8
2023-03-29T00:57:44.503Z,90.8
2023-03-29T00:58:58.828Z,91.1
2023-03-29T01:00:13.120Z,91.1
2023-03-29T01:01:27.394Z,90.9
2023-03-29T01:02:41.811Z,90.5
2023-03-29T01:03:56.129Z,90.8
2023-03-29T01:05:10.415Z,90.7
2023-03-29T01:06:24.679Z,90.5
2023-03-29T01:07:39.088Z,91.1
2023-03-29T01:08:53.418Z,90.5
2023-03-29T01:10:07.695Z,90.7
2023-03-29T01:11:21.971Z,90.8
2023-03-29T01:12:36.386Z,90.5
2023-03-29T01:13:50.711Z,90.5
2023-03-29T01:15:04.983Z,90.5
2023-03-29T01:16:19.388Z,90.5
2023-03-29T01:17:33.805Z,90.5
2023-03-29T01:18:48.120Z,90.2
2023-03-29T01:20:02.402Z,90.2
2023-03-29T01:21:16.692Z,90.3
2023-03-29T01:22:31.102Z,90.5
2023-03-29T01:23:45.410Z,90.2
2023-03-29T01:24:59.706Z,90.2
2023-03-29T01:26:13.977Z,90.9
2023-03-29T01:27:28.385Z,90.7
2023-03-29T01:28:42.700Z,90.5
2023-03-29T01:29:56.990Z,90.9
2023-03-29T01:31:11.270Z,90.8
2023-03-29T01:32:25.674Z,90.7
2023-03-29T01:33:39.992Z,90.9
2023-03-29T01:34:54.281Z,90.5
2023-03-29T01:36:08.571Z,90.7
2023-03-29T01:37:22.975Z,90.5
2023-03-29T01:38:37.302Z,90.7
2023-03-29T01:39:51.579Z,90.5
2023-03-29T01:41:05.983Z,90.2
2023-03-29T01:42:20.388Z,90.2
2023-03-29T01:43:34.706Z,90.7
2023-03-29T01:44:48.987Z,90.8
2023-03-29T01:46:03.263Z,90.9
2023-03-29T01:47:17.684Z,91.1
2023-03-29T01:48:32.005Z,91
2023-03-29T01:51:00.570Z,90.5
2023-03-29T01:52:14.972Z,90.7
2023-03-29T01:53:29.287Z,90.9
2023-03-29T01:54:43.580Z,90.7
2023-03-29T01:55:57.849Z,90.5
2023-03-29T01:57:12.258Z,90.9
2023-03-29T01:58:26.578Z,91.1
2023-03-29T01:59:40.876Z,91.3
2023-03-29T02:00:55.176Z,91.2
2023-03-29T02:02:09.555Z,91.2
2023-03-29T02:03:23.874Z,91.2
2023-03-29T02:04:38.153Z,91.4
2023-03-29T02:05:52.441Z,91.4
2023-03-29T02:07:06.845Z,91.8
2023-03-29T02:08:21.175Z,92.1
2023-03-29T02:09:35.445Z,92.2
2023-03-29T02:10:49.854Z,92.3
2023-03-29T02:12:04.265Z,92.1
2023-03-29T02:14:32.863Z,91.7
2023-03-29T02:15:47.137Z,91.9
2023-03-29T02:17:01.545Z,91.7
2023-03-29T02:19:30.163Z,92.2
2023-03-29T02:20:44.439Z,92
2023-03-29T02:21:58.839Z,92.3
2023-03-29T02:25:41.737Z,92.2
2023-03-29T02:26:56.130Z,92.2
2023-03-29T02:28:10.454Z,91.9
2023-03-29T02:29:24.740Z,92.5
2023-03-29T02:30:39.156Z,92.2
2023-03-29T02:31:53.580Z,92.2
2023-03-29T02:33:07.904Z,92.4
2023-03-29T02:34:22.169Z,91.8
2023-03-29T02:35:36.464Z,91.8
2023-03-29T02:36:50.869Z,91.6
2023-03-29T02:38:05.190Z,92
2023-03-29T02:39:19.476Z,92.1
2023-03-29T02:40:33.875Z,92.1
2023-03-29T02:41:48.288Z,92
2023-03-29T02:43:02.606Z,91.9
2023-03-29T02:44:16.888Z,91.5
2023-03-29T02:45:31.157Z,91.3
2023-03-29T02:46:45.574Z,91.9
2023-03-29T02:47:59.899Z,91.8
2023-03-29T02:49:14.185Z,91.6
2023-03-29T02:50:28.605Z,91.5
2023-03-29T02:51:43.007Z,91.4
2023-03-29T02:52:57.322Z,91.6
2023-03-29T02:54:11.609Z,91.5
2023-03-29T02:55:25.901Z,91.7
2023-03-29T02:56:40.301Z,91.5
2023-03-29T02:57:54.620Z,91.4
2023-03-29T02:59:08.901Z,91.8
2023-03-29T03:00:23.300Z,91.4
2023-03-29T03:01:37.659Z,91.3
2023-03-29T03:02:51.950Z,91.2
2023-03-29T03:04:06.240Z,91.3
2023-03-29T03:05:20.513Z,91.3
2023-03-29T03:06:34.928Z,91
2023-03-29T03:07:49.242Z,91.1
2023-03-29T03:09:03.534Z,91
2023-03-29T03:10:17.815Z,90.9
2023-03-29T03:11:32.211Z,90.8
2023-03-29T03:12:46.548Z,90.8
2023-03-29T03:14:00.829Z,90.8
2023-03-29T03:15:15.097Z,90.7
2023-03-29T03:16:29.525Z,90.7
2023-03-29T03:17:43.840Z,90.7
2023-03-29T03:18:58.123Z,90.5
2023-03-29T03:21:26.816Z,90.3
2023-03-29T03:22:41.139Z,90.2
2023-03-29T03:23:55.407Z,90.4
2023-03-29T03:25:09.817Z,90.5
2023-03-29T03:26:24.218Z,90.6
2023-03-29T03:27:38.553Z,90
2023-03-29T03:28:52.834Z,90.1
2023-03-29T03:30:07.104Z,89.8
2023-03-29T03:31:21.529Z,90.3
2023-03-29T03:32:35.837Z,90.3
2023-03-29T03:33:50.132Z,89.9
2023-03-29T03:36:18.808Z,89.8
2023-03-29T03:37:33.142Z,89.9
2023-03-29T03:38:47.422Z,89.8
2023-03-29T03:40:01.690Z,89.6
2023-03-29T03:41:16.103Z,89.3
2023-03-29T03:42:30.421Z,89.3
2023-03-29T03:43:44.708Z,89.2
2023-03-29T03:44:59.107Z,88.9
2023-03-29T03:46:13.520Z,89
2023-03-29T03:47:27.858Z,89.1
2023-03-29T03:48:42.123Z,88.9
2023-03-29T03:51:10.820Z,88.6
2023-03-29T03:52:25.149Z,88.3
2023-03-29T03:53:39.421Z,88.4
2023-03-29T03:54:53.696Z,88.4
2023-03-29T03:56:08.117Z,88.5
2023-03-29T03:57:22.436Z,88.3
2023-03-29T03:58:36.724Z,88
2023-03-29T03:59:50.989Z,87.9
2023-03-29T04:01:05.416Z,87.9
2023-03-29T04:02:19.733Z,87.7
2023-03-29T04:03:34.007Z,87.8
2023-03-29T04:04:48.409Z,87.9
2023-03-29T04:06:02.831Z,87.6
2023-03-29T04:07:17.149Z,87.5
2023-03-29T04:08:31.427Z,87.8
2023-03-29T04:11:00.126Z,87.6
2023-03-29T04:12:14.449Z,87.3
2023-03-29T04:13:28.723Z,87.2
2023-03-29T04:14:43.004Z,86.9
2023-03-29T04:15:57.409Z,86.7
2023-03-29T04:17:11.741Z,86.8
2023-03-29T04:18:26.010Z,87.2
2023-03-29T04:19:40.298Z,87.1
2023-03-29T04:20:54.706Z,86.8
2023-03-29T04:22:09.037Z,86.7
2023-03-29T04:23:23.309Z,86.9
2023-03-29T04:24:37.717Z,86.5
2023-03-29T04:25:52.115Z,86.7
2023-03-29T04:27:06.444Z,86.7
2023-03-29T04:28:20.729Z,86.5
2023-03-29T04:29:34.998Z,86.9
2023-03-29T04:30:49.405Z,86.6
2023-03-29T04:32:03.732Z,86.7
2023-03-29T04:33:18.009Z,86.7
2023-03-29T04:34:32.299Z,86.5
2023-03-29T04:35:46.704Z,86.5
2023-03-29T04:37:00.941Z,86.2
2023-03-29T04:38:15.180Z,86.2
2023-03-29T04:39:29.402Z,86.1
2023-03-29T04:40:43.682Z,85.7
2023-03-29T04:41:58.099Z,85.9
2023-03-29T04:43:12.335Z,86.1
2023-03-29T04:45:40.785Z,85.9
2023-03-29T04:46:55.002Z,85.9
2023-03-29T04:48:09.306Z,85.7
2023-03-29T04:49:23.553Z,85.7
2023-03-29T04:50:37.778Z,85.7
2023-03-29T04:51:52.011Z,85.4
2023-03-29T04:53:06.238Z,85.1
2023-03-29T04:54:20.526Z,85.2
2023-03-29T04:55:34.778Z,85.4
2023-03-29T04:56:49.008Z,85.3
2023-03-29T04:58:03.231Z,85.3
2023-03-29T04:59:17.578Z,85.5
2023-03-29T05:00:31.866Z,85.1
2023-03-29T05:01:46.106Z,85.3
2023-03-29T05:04:14.568Z,84.9
2023-03-29T05:05:28.794Z,85
2023-03-29T05:06:43.090Z,85
2023-03-29T05:07:57.341Z,84.9
2023-03-29T05:09:11.559Z,85
2023-03-29T05:10:25.797Z,84.8
2023-03-29T05:11:40.014Z,84.4
2023-03-29T05:12:54.320Z,84.7
2023-03-29T05:14:08.554Z,84.5
2023-03-29T05:15:22.786Z,84.4
2023-03-29T05:16:37.124Z,84.3
2023-03-29T05:17:51.367Z,84.2
2023-03-29T05:19:05.660Z,84.2
2023-03-29T05:20:19.900Z,83.8
2023-03-29T05:21:34.120Z,83.7
2023-03-29T05:22:48.355Z,83.8
2023-03-29T05:24:02.582Z,84
2023-03-29T05:25:16.883Z,83.7
2023-03-29T05:26:31.131Z,83.6
2023-03-29T05:27:45.351Z,83.4
2023-03-29T05:28:59.581Z,83.3
2023-03-29T05:30:13.800Z,83
2023-03-29T05:31:28.100Z,83.2
2023-03-29T05:32:42.342Z,82.8
2023-03-29T05:33:56.575Z,83
2023-03-29T05:35:10.794Z,82.8
2023-03-29T05:36:25.028Z,82.8
2023-03-29T05:37:39.331Z,82.8
2023-03-29T05:38:53.000Z,82.7
2023-03-29T05:40:07.800Z,82.5
2023-03-29T05:41:22.148Z,82.6
2023-03-29T05:42:36.359Z,82.6
2023-03-29T05:43:50.677Z,82.6
2023-03-29T05:45:04.901Z,82.8
2023-03-29T05:46:19.146Z,82.3
2023-03-29T05:47:33.361Z,82.4
2023-03-29T05:48:47.593Z,82.4
2023-03-29T05:50:01.897Z,82.5
2023-03-29T05:51:16.132Z,82.6
2023-03-29T05:52:30.361Z,82.7
2023-03-29T05:53:44.591Z,82.7
2023-03-29T05:54:58.819Z,83.2
2023-03-29T05:56:13.108Z,83.3
2023-03-29T05:57:27.359Z,83.3
2023-03-29T05:58:41.570Z,83.4
2023-03-29T05:59:55.806Z,83.4
2023-03-29T06:01:10.030Z,83.5
2023-03-29T06:02:24.337Z,83.5
2023-03-29T06:03:38.582Z,83.8
2023-03-29T06:04:52.802Z,84.2
2023-03-29T06:07:21.378Z,84.2
2023-03-29T06:08:35.676Z,84.6
2023-03-29T06:09:49.914Z,84.7
2023-03-29T06:11:04.153Z,84.8
2023-03-29T06:12:18.370Z,84.8
2023-03-29T06:13:32.601Z,84.8
2023-03-29T06:14:46.902Z,85
2023-03-29T06:16:01.143Z,84.7
2023-03-29T06:17:15.367Z,85.1
2023-03-29T06:18:29.585Z,85.2
2023-03-29T06:19:43.819Z,85
2023-03-29T06:20:58.129Z,85
2023-03-29T06:23:26.595Z,85.5
2023-03-29T06:24:40.810Z,85.1
2023-03-29T06:25:55.164Z,85.3
2023-03-29T06:27:09.471Z,85.4
2023-03-29T06:28:23.707Z,85.4
2023-03-29T06:29:37.923Z,85.5
2023-03-29T06:32:06.392Z,85.7
2023-03-29T06:33:20.674Z,85.8
2023-03-29T06:34:34.932Z,86.1
2023-03-29T06:35:49.151Z,86.8
2023-03-29T06:37:03.382Z,87.1
2023-03-29T06:38:17.596Z,87.6
2023-03-29T06:39:31.909Z,87.4
2023-03-29T06:40:46.154Z,87.5
2023-03-29T06:42:00.381Z,87.5
2023-03-29T06:43:14.721Z,87.4
2023-03-29T06:44:28.955Z,87.3
2023-03-29T06:45:43.254Z,88.1
2023-03-29T06:46:57.487Z,87.6
2023-03-29T06:48:11.707Z,87.6
2023-03-29T06:49:25.943Z,88
2023-03-29T06:50:40.161Z,87.8
2023-03-29T06:51:54.476Z,88
2023-03-29T06:53:08.699Z,88.1
2023-03-29T06:54:22.933Z,88
2023-03-29T06:55:37.171Z,88.2
2023-03-29T06:56:51.389Z,88.6
2023-03-29T06:58:05.693Z,89.1
2023-03-29T06:59:19.933Z,88.9
2023-03-29T07:00:34.288Z,88.7
2023-03-29T07:01:48.511Z,88.5
2023-03-29T07:03:02.728Z,88.8
2023-03-29T07:04:17.025Z,88.5
2023-03-29T07:05:31.267Z,88.1
2023-03-29T07:06:45.499Z,88.1
2023-03-29T07:07:59.718Z,88.4
2023-03-29T07:09:13.945Z,88.3
2023-03-29T07:10:28.249Z,88.3
2023-03-29T07:11:42.494Z,88.5
2023-03-29T07:12:56.710Z,88.6
2023-03-29T07:14:10.954Z,88.7
2023-03-29T07:15:25.165Z,88.7
2023-03-29T07:17:53.709Z,88.5
2023-03-29T07:19:07.938Z,87.6
2023-03-29T07:20:22.297Z,88.3
2023-03-29T07:21:36.524Z,88.5
2023-03-29T07:22:50.820Z,88.2
2023-03-29T07:24:05.050Z,88.3
2023-03-29T07:25:19.291Z,88.1
2023-03-29T07:26:33.503Z,87.9
2023-03-29T07:27:47.732Z,87.8
2023-03-29T07:29:02.041Z,87.9
2023-03-29T07:30:16.268Z,87.6
2023-03-29T07:31:30.497Z,87.5
2023-03-29T07:32:44.732Z,87.3
2023-03-29T07:33:58.953Z,87
2023-03-29T07:35:13.260Z,87.4
2023-03-29T07:36:27.503Z,87.4
2023-03-29T07:37:41.843Z,87.3
2023-03-29T07:38:56.073Z,87.2
2023-03-29T07:40:10.305Z,87.2
2023-03-29T07:41:24.607Z,87
2023-03-29T07:42:38.833Z,87.2
2023-03-29T07:43:53.068Z,87.3
2023-03-29T07:45:07.294Z,87.4
2023-03-29T07:46:21.519Z,87.3
2023-03-29T07:47:35.819Z,87.2
2023-03-29T07:48:50.070Z,87.4
2023-03-29T07:50:04.298Z,86.9
2023-03-29T07:51:18.522Z,87
2023-03-29T07:52:32.751Z,86.9
2023-03-29T07:53:47.034Z,87
2023-03-29T07:55:01.282Z,86.8
2023-03-29T07:56:15.501Z,86.9
2023-03-29T07:57:29.733Z,87
2023-03-29T07:58:43.952Z,86.6
2023-03-29T07:59:58.267Z,86.8
2023-03-29T08:02:26.722Z,86.3
2023-03-29T08:03:40.962Z,85.9
2023-03-29T08:04:55.302Z,86
2023-03-29T08:06:09.603Z,86.2
2023-03-29T08:07:23.843Z,86.1
2023-03-29T08:08:38.076Z,86.2
2023-03-29T08:09:52.290Z,86.3
2023-03-29T08:11:06.527Z,86.2
2023-03-29T08:12:20.829Z,86.3
2023-03-29T08:13:35.067Z,86.2
2023-03-29T08:14:49.287Z,86.2
2023-03-29T08:17:17.748Z,86
2023-03-29T08:18:32.054Z,86
2023-03-29T08:19:46.294Z,85.9
2023-03-29T08:21:00.515Z,85.5
2023-03-29T08:22:14.733Z,85.7
2023-03-29T08:23:28.967Z,85.3
2023-03-29T08:24:43.274Z,85.5
2023-03-29T08:25:57.504Z,85.8
2023-03-29T08:27:11.736Z,85
2023-03-29T08:28:25.969Z,85.1
2023-03-29T08:29:40.315Z,84.8
2023-03-29T08:30:54.603Z,84.8
2023-03-29T08:32:08.853Z,84.4
2023-03-29T08:33:23.083Z,84.1
2023-03-29T08:34:37.301Z,84.2
2023-03-29T08:35:51.539Z,83.7
2023-03-29T08:37:05.820Z,83.1
2023-03-29T08:38:20.062Z,83.7
2023-03-29T08:39:34.288Z,83.6
2023-03-29T08:40:48.517Z,83.8
2023-03-29T08:42:02.746Z,83.7
2023-03-29T08:43:17.041Z,83.8
2023-03-29T08:44:31.292Z,83.2
2023-03-29T08:45:45.508Z,83.7
2023-03-29T08:46:59.738Z,82.9
2023-03-29T08:48:13.959Z,82.3
2023-03-29T08:49:28.265Z,82
2023-03-29T08:50:42.507Z,81.9
2023-03-29T08:51:56.741Z,81.5
2023-03-29T08:53:10.963Z,81
2023-03-29T08:54:25.181Z,80.8
2023-03-29T08:55:39.481Z,80.7
2023-03-29T08:56:53.731Z,80.5
2023-03-29T08:58:07.949Z,80.3
2023-03-29T08:59:22.193Z,79.5
2023-03-29T09:00:36.411Z,79.6
2023-03-29T09:01:50.707Z,80
2023-03-29T09:03:04.944Z,80.2
2023-03-29T09:04:19.168Z,80.6
2023-03-29T09:05:33.402Z,80.8
2023-03-29T09:06:47.634Z,80.5
2023-03-29T09:08:01.936Z,80.7
2023-03-29T09:09:16.170Z,80.9
2023-03-29T09:10:30.408Z,81.2
2023-03-29T09:11:44.624Z,80.9
2023-03-29T09:12:58.846Z,80.6
2023-03-29T09:14:13.156Z,80.6
2023-03-29T09:15:27.449Z,80.5
2023-03-29T09:16:40.802Z,80.5
2023-03-29T09:17:54.099Z,80.4
2023-03-29T09:19:08.321Z,80.8
2023-03-29T09:20:22.554Z,80.9
2023-03-29T09:21:36.794Z,80.4
2023-03-29T09:22:51.013Z,80.7
2023-03-29T09:24:05.309Z,80.9
2023-03-29T09:25:19.547Z,81.2
2023-03-29T09:26:33.769Z,80.7
2023-03-29T09:27:48.008Z,81.6
2023-03-29T09:29:02.224Z,81.7
2023-03-29T09:30:16.541Z,82.6
2023-03-29T09:31:30.773Z,82.1
2023-03-29T09:32:45.009Z,80.8
2023-03-29T09:33:59.227Z,80.2
2023-03-29T09:35:13.445Z,80
2023-03-29T09:36:27.758Z,79.7
2023-03-29T09:37:41.985Z,79.5
2023-03-29T09:38:56.230Z,79.7
2023-03-29T09:40:10.440Z,78.7
2023-03-29T09:41:24.674Z,77.9
2023-03-29T09:42:38.977Z,78.6
2023-03-29T09:43:53.214Z,77.5
2023-03-29T09:45:07.432Z,77.5
2023-03-29T09:46:21.658Z,77
2023-03-29T09:47:35.903Z,76.7
2023-03-29T09:48:50.243Z,77.3
2023-03-29T09:50:04.528Z,76.8
2023-03-29T09:51:17.860Z,77.3
2023-03-29T09:52:31.166Z,77.1
2023-03-29T09:53:45.410Z,77.4
2023-03-29T09:54:59.621Z,76.5
2023-03-29T09:56:13.862Z,75.1
2023-03-29T09:57:28.085Z,75
2023-03-29T09:58:42.375Z,75.8
2023-03-29T09:59:56.626Z,76.2
2023-03-29T10:01:10.844Z,76.3
2023-03-29T10:02:25.084Z,75.6
2023-03-29T10:03:39.301Z,75.4
2023-03-29T10:04:53.595Z,75.8
2023-03-29T10:06:07.847Z,76.4
2023-03-29T10:07:22.069Z,77
2023-03-29T10:08:36.291Z,77.2
2023-03-29T10:09:50.525Z,78
2023-03-29T10:11:04.826Z,78.6
2023-03-29T10:12:19.064Z,79.6
2023-03-29T10:13:33.295Z,80.9
2023-03-29T10:14:47.513Z,83
2023-03-29T10:16:01.738Z,84.4
2023-03-29T10:17:16.033Z,84.7
2023-03-29T10:18:30.291Z,84
2023-03-29T10:19:44.501Z,83.5
2023-03-29T10:20:58.739Z,83
2023-03-29T10:22:12.957Z,83.1
2023-03-29T10:23:27.323Z,83.5
2023-03-29T10:24:41.594Z,83.8
2023-03-29T10:25:54.896Z,85
2023-03-29T10:27:09.117Z,83.3
2023-03-29T10:28:23.429Z,81.7
2023-03-29T10:29:37.667Z,80.8
2023-03-29T10:30:51.887Z,81
2023-03-29T10:32:06.116Z,81.5
2023-03-29T10:33:20.337Z,82.5
2023-03-29T10:34:34.640Z,83.9
2023-03-29T10:35:48.879Z,83.7
2023-03-29T10:37:03.107Z,84.8
2023-03-29T10:38:17.325Z,85.6
2023-03-29T10:39:31.565Z,84.7
2023-03-29T10:40:45.860Z,83.6
2023-03-29T10:42:00.104Z,83
2023-03-29T10:43:14.308Z,83.6
2023-03-29T10:44:28.525Z,82.8
2023-03-29T10:45:42.763Z,81.8
2023-03-29T10:46:57.064Z,81.7
2023-03-29T10:49:25.525Z,82.4
2023-03-29T10:50:39.757Z,82
2023-03-29T10:51:53.968Z,82.4
2023-03-29T10:53:08.272Z,84
2023-03-29T10:54:22.507Z,83.5
2023-03-29T10:55:36.747Z,84.8
2023-03-29T10:56:51.023Z,83.7
2023-03-29T10:58:04.362Z,84.1
2023-03-29T10:59:18.640Z,84.7
2023-03-29T11:00:31.943Z,85.3
2023-03-29T11:01:46.161Z,85.3
2023-03-29T11:03:00.457Z,86.3
2023-03-29T11:04:14.696Z,86.8
2023-03-29T11:05:28.923Z,87.6
2023-03-29T11:06:43.154Z,88.6
2023-03-29T11:09:11.679Z,89.8
2023-03-29T11:10:25.922Z,89.9
2023-03-29T11:11:40.154Z,90.3
2023-03-29T11:12:54.382Z,90.5
2023-03-29T11:14:08.592Z,90.5
2023-03-29T11:15:22.906Z,90.9
2023-03-29T11:16:37.132Z,90.8
2023-03-29T11:17:51.361Z,91.5
2023-03-29T11:19:05.588Z,91.9
2023-03-29T11:20:19.828Z,92.2
2023-03-29T11:21:34.128Z,91
2023-03-29T11:22:48.356Z,90.4
2023-03-29T11:24:02.587Z,91.7
2023-03-29T11:25:16.808Z,92.2
2023-03-29T11:27:45.337Z,93.6
2023-03-29T11:28:59.578Z,93.4
2023-03-29T11:30:13.809Z,94.5
2023-03-29T11:31:28.096Z,95.6
2023-03-29T11:32:41.430Z,94.7
2023-03-29T11:33:55.699Z,95
2023-03-29T11:35:09.991Z,94.9
2023-03-29T11:36:23.000Z,95.9
2023-03-29T11:37:37.577Z,95.9
2023-03-29T11:38:51.834Z,96.2
2023-03-29T11:40:06.048Z,96.1
2023-03-29T11:41:20.281Z,94.9
2023-03-29T11:42:34.506Z,94.1
2023-03-29T11:43:48.801Z,96.1
2023-03-29T11:45:03.055Z,95.6
2023-03-29T11:46:17.275Z,95.3
2023-03-29T11:48:45.730Z,94.2
2023-03-29T11:50:00.020Z,94.5
2023-03-29T11:51:14.269Z,93.4
2023-03-29T11:52:28.496Z,93
2023-03-29T11:53:42.707Z,93.1
2023-03-29T11:54:56.937Z,92.6
2023-03-29T11:57:25.489Z,95
2023-03-29T11:58:39.699Z,94.3
2023-03-29T11:59:53.935Z,94.7
2023-03-29T12:01:08.159Z,94.8
2023-03-29T12:02:22.467Z,95
2023-03-29T12:03:36.697Z,95.6
2023-03-29T12:04:50.929Z,95.8
2023-03-29T12:06:05.146Z,95.9
2023-03-29T12:07:19.431Z,95.9
2023-03-29T12:08:33.745Z,95.3
2023-03-29T12:09:48.011Z,94.2
2023-03-29T12:11:01.343Z,92.4
2023-03-29T12:12:15.645Z,91.4
2023-03-29T12:13:29.929Z,89
2023-03-29T12:14:44.217Z,89
2023-03-29T12:15:58.509Z,91.2
2023-03-29T12:17:12.787Z,90.4
2023-03-29T12:18:26.130Z,91.3
2023-03-29T12:19:40.421Z,90.3
2023-03-29T12:20:53.745Z,91
2023-03-29T12:22:07.048Z,90.5
2023-03-29T12:23:21.288Z,88.8
2023-03-29T12:24:35.523Z,88.2
2023-03-29T12:25:49.736Z,88.6
2023-03-29T12:27:03.961Z,89.4
2023-03-29T12:28:18.273Z,89.3
2023-03-29T12:29:32.517Z,89.7
2023-03-29T12:30:46.730Z,90
2023-03-29T12:32:00.970Z,89.1
2023-03-29T12:33:15.183Z,87.9
2023-03-29T12:34:29.489Z,87.4
2023-03-29T12:35:43.737Z,87.1
2023-03-29T12:36:57.958Z,85.4
2023-03-29T12:38:12.189Z,85.8
2023-03-29T12:39:26.415Z,83.7
2023-03-29T12:40:40.708Z,82.1
2023-03-29T12:41:54.943Z,82.2
2023-03-29T12:43:09.182Z,80.7
2023-03-29T12:44:23.394Z,80.9
2023-03-29T12:45:37.619Z,80.1
2023-03-29T12:46:51.930Z,80.2
2023-03-29T12:48:06.173Z,82
2023-03-29T12:49:20.388Z,80.6
2023-03-29T12:50:34.616Z,79.5
2023-03-29T12:51:48.837Z,80.4
2023-03-29T12:53:03.213Z,79
2023-03-29T12:54:17.497Z,77
2023-03-29T12:55:30.792Z,77.2
2023-03-29T12:56:45.008Z,78.9
2023-03-29T12:57:59.320Z,79.4
2023-03-29T12:59:13.554Z,78.9
2023-03-29T13:00:27.788Z,79.8
2023-03-29T13:01:42.007Z,79.7
2023-03-29T13:04:10.539Z,79.7
2023-03-29T13:05:24.764Z,81.7
2023-03-29T13:06:38.994Z,82.5
2023-03-29T13:07:53.231Z,82.1
2023-03-29T13:09:07.449Z,82
2023-03-29T13:10:21.758Z,81.7
2023-03-29T13:11:35.984Z,81.2
2023-03-29T13:12:50.222Z,80.7
2023-03-29T13:14:04.439Z,79.9
2023-03-29T13:15:18.679Z,79.9
2023-03-29T13:16:32.963Z,80.3
2023-03-29T13:17:47.212Z,81.1
2023-03-29T13:19:01.445Z,80.1
2023-03-29T13:20:15.670Z,80.9
2023-03-29T13:21:29.880Z,80.6
2023-03-29T13:22:44.190Z,80.7
2023-03-29T13:23:58.439Z,81.1
2023-03-29T13:25:12.655Z,80.9
2023-03-29T13:27:41.226Z,82
2023-03-29T13:28:55.532Z,83.3
2023-03-29T13:30:09.807Z,84.2
2023-03-29T13:31:24.097Z,86
2023-03-29T13:32:37.389Z,87.3
2023-03-29T13:33:51.682Z,88.3
2023-03-29T13:35:05.930Z,90.2
2023-03-29T13:36:20.150Z,91.1
2023-03-29T13:37:34.378Z,91.5
2023-03-29T13:38:48.601Z,92.5
2023-03-29T13:40:02.912Z,93.3
2023-03-29T13:41:17.151Z,93.8
2023-03-29T13:42:31.369Z,94.4
2023-03-29T13:43:45.604Z,95.4
2023-03-29T13:44:59.818Z,95.5
2023-03-29T13:46:14.116Z,95.8
2023-03-29T13:47:28.355Z,95.3
2023-03-29T13:48:42.584Z,95.5
2023-03-29T13:49:56.809Z,94.7
2023-03-29T13:51:11.047Z,94.1
2023-03-29T13:53:39.586Z,93.6
2023-03-29T13:54:53.808Z,94
2023-03-29T13:56:08.034Z,94.2
2023-03-29T13:57:22.255Z,92.9
2023-03-29T13:58:36.552Z,92.1
2023-03-29T13:59:50.802Z,91.7
2023-03-29T14:01:05.021Z,92.1
2023-03-29T14:02:19.247Z,90.2
2023-03-29T14:03:33.537Z,91
2023-03-29T14:04:47.837Z,91.8
2023-03-29T14:06:02.114Z,91.9
2023-03-29T14:07:15.414Z,92.1
2023-03-29T14:08:29.637Z,91.5
2023-03-29T14:09:43.953Z,91.9
2023-03-29T14:10:58.187Z,90.7
2023-03-29T14:13:26.647Z,91.2
2023-03-29T14:14:40.868Z,91.3
2023-03-29T14:15:55.157Z,91
2023-03-29T14:17:09.395Z,91
2023-03-29T14:18:23.627Z,89.3
2023-03-29T14:19:37.867Z,90
2023-03-29T14:20:52.079Z,89.4
2023-03-29T14:22:06.385Z,89.8
2023-03-29T14:23:20.619Z,88.3
2023-03-29T14:24:34.851Z,89.1
2023-03-29T14:25:49.072Z,87
2023-03-29T14:27:03.301Z,88.3
2023-03-29T14:28:17.596Z,87.4
2023-03-29T14:29:31.853Z,84.7
2023-03-29T14:30:46.068Z,84.3
2023-03-29T14:32:00.290Z,84.9
2023-03-29T14:33:14.524Z,83.4
2023-03-29T14:34:28.816Z,85.5
2023-03-29T14:35:43.073Z,85.1
2023-03-29T14:36:57.294Z,84.5
2023-03-29T14:38:11.570Z,84.9
2023-03-29T14:40:39.113Z,84.2
2023-03-29T14:41:53.343Z,84.9
2023-03-29T14:43:07.556Z,84.8
2023-03-29T14:44:21.784Z,85.5
2023-03-29T14:45:36.080Z,85.5
2023-03-29T14:46:50.331Z,85.6
2023-03-29T14:48:04.562Z,83.9
2023-03-29T14:49:18.788Z,83.8
2023-03-29T14:50:33.002Z,82.2
2023-03-29T14:51:47.305Z,81.8
2023-03-29T14:53:01.540Z,83.8
2023-03-29T14:54:15.785Z,82.8
2023-03-29T14:55:29.995Z,82.1
2023-03-29T14:56:44.218Z,81.8
2023-03-29T14:57:58.533Z,80.4
2023-03-29T14:59:12.764Z,80.9
2023-03-29T15:00:26.995Z,81.3
2023-03-29T15:01:41.225Z,80.8
2023-03-29T15:02:55.440Z,81
2023-03-29T15:04:09.750Z,80.1
2023-03-29T15:05:23.993Z,80.7
2023-03-29T15:06:38.216Z,81.1
2023-03-29T15:07:52.444Z,82.2
2023-03-29T15:09:06.670Z,80
2023-03-29T15:10:21.033Z,80.3
2023-03-29T15:11:35.314Z,80.6
2023-03-29T15:12:48.606Z,80.4
2023-03-29T15:14:02.833Z,79.8
2023-03-29T15:15:17.139Z,80.3
2023-03-29T15:16:31.373Z,79.5
2023-03-29T15:17:45.607Z,79.7
2023-03-29T15:18:59.830Z,80.2
2023-03-29T15:20:14.058Z,79.8
2023-03-29T15:21:28.348Z,79.1
2023-03-29T15:22:42.601Z,78.8
2023-03-29T15:23:56.822Z,78.7
2023-03-29T15:25:11.052Z,78.1
2023-03-29T15:26:25.278Z,79.1
2023-03-29T15:27:39.569Z,78.1
2023-03-29T15:28:53.818Z,76.7
2023-03-29T15:30:08.030Z,77.6
2023-03-29T15:31:22.263Z,77.7
2023-03-29T15:32:36.482Z,78.3
2023-03-29T15:33:50.796Z,79
2023-03-29T15:35:05.027Z,78.4
2023-03-29T15:36:19.256Z,78.5
2023-03-29T15:37:33.482Z,78.2
2023-03-29T15:38:47.709Z,78.8
2023-03-29T15:40:02.010Z,77.3
2023-03-29T15:41:16.259Z,78.2
2023-03-29T15:42:30.471Z,77.2
2023-03-29T15:43:44.769Z,78.2
2023-03-29T15:46:13.352Z,76.5
2023-03-29T15:47:27.618Z,77
2023-03-29T15:48:40.920Z,76.6
2023-03-29T15:49:55.154Z,77.1
2023-03-29T15:51:09.454Z,77.4
2023-03-29T15:52:23.689Z,77.1
2023-03-29T15:53:37.908Z,76.2
2023-03-29T15:54:52.144Z,76.3
2023-03-29T15:56:06.361Z,76.6
2023-03-29T15:57:20.657Z,77.8
2023-03-29T15:58:34.905Z,76.2
2023-03-29T15:59:49.128Z,76.6
2023-03-29T16:01:03.370Z,76.8
2023-03-29T16:02:17.596Z,76.8
2023-03-29T16:03:31.882Z,75.9
2023-03-29T16:04:46.120Z,76.8
2023-03-29T16:06:00.361Z,75.4
2023-03-29T16:07:14.590Z,75.8
2023-03-29T16:08:28.806Z,76
2023-03-29T16:09:43.110Z,75.9
2023-03-29T16:10:57.339Z,76.3
2023-03-29T16:12:11.571Z,76.3
2023-03-29T16:13:25.797Z,76.6
2023-03-29T16:14:40.031Z,76.2
2023-03-29T16:17:08.567Z,75.5
2023-03-29T16:18:22.798Z,75.5
2023-03-29T16:19:37.086Z,75.8
2023-03-29T16:20:50.418Z,75.5
2023-03-29T16:22:04.697Z,74.9
2023-03-29T16:23:17.980Z,74.8
2023-03-29T16:24:32.211Z,75.2
2023-03-29T16:25:46.518Z,74.8
2023-03-29T16:27:00.752Z,75.1
2023-03-29T16:28:14.985Z,75.1
2023-03-29T16:29:29.205Z,75.6
2023-03-29T16:30:43.425Z,75.6
2023-03-29T16:31:57.724Z,75.5
2023-03-29T16:33:11.979Z,75.5
2023-03-29T16:34:26.205Z,75.2
2023-03-29T16:35:40.414Z,75.4
2023-03-29T16:36:54.642Z,76.3
2023-03-29T16:38:08.949Z,76.5
2023-03-29T16:39:23.187Z,75.4
2023-03-29T16:40:37.412Z,75.6
2023-03-29T16:41:51.653Z,75.6
2023-03-29T16:43:05.879Z,75.9
2023-03-29T16:44:20.178Z,75.9
2023-03-29T16:45:34.417Z,75.7
2023-03-29T16:46:48.628Z,75.4
2023-03-29T16:48:02.859Z,75.7
2023-03-29T16:49:17.085Z,75.8
2023-03-29T16:50:31.379Z,75.6
2023-03-29T16:51:45.626Z,76
2023-03-29T16:52:59.851Z,75.9
2023-03-29T16:54:14.146Z,75.6
2023-03-29T16:55:27.496Z,76.1
2023-03-29T16:56:41.778Z,76.3
2023-03-29T16:57:55.066Z,76.2
2023-03-29T16:59:09.300Z,76.3
2023-03-29T17:00:23.588Z,76.5
2023-03-29T17:01:37.826Z,76.5
2023-03-29T17:02:52.056Z,76.5
2023-03-29T17:04:06.282Z,77.1
2023-03-29T17:05:20.518Z,76.9
2023-03-29T17:06:34.812Z,78
2023-03-29T17:07:49.052Z,77.7
2023-03-29T17:09:03.277Z,78.6
2023-03-29T17:10:17.508Z,78.5